createdAt,value
2022-08-03T00:00:24.344Z,4.05
2022-08-03T00:02:51.091Z,3.58
2022-08-03T00:07:44.042Z,3.80
2022-08-03T00:12:37.670Z,3.50
2022-08-03T00:15:04.591Z,3.78
2022-08-03T00:17:52.756Z,4.65
2022-08-03T00:20:21.298Z,3.10
2022-08-03T00:22:47.889Z,3.90
2022-08-03T00:25:14.404Z,3.40
2022-08-03T00:27:40.881Z,3.88
2022-08-03T00:32:34.091Z,3.42
2022-08-03T00:35:00.599Z,3.55
2022-08-03T00:37:40.830Z,3.03
2022-08-03T00:40:10.533Z,4.60
2022-08-03T00:42:46.929Z,3.38
2022-08-03T00:45:13.438Z,3.30
2022-08-03T00:47:39.897Z,3.00
2022-08-03T00:50:06.723Z,3.22
2022-08-03T00:52:34.005Z,2.67
2022-08-03T00:55:01.456Z,3.92
2022-08-03T00:57:30.450Z,3.50
2022-08-03T00:59:57.130Z,3.80
2022-08-03T01:02:23.674Z,3.92
2022-08-03T01:04:50.251Z,3.70
2022-08-03T01:07:51.113Z,3.63
2022-08-03T01:10:26.955Z,4.30
2022-08-03T01:13:59.961Z,4.03
2022-08-03T01:16:07.975Z,3.88
2022-08-03T01:18:51.051Z,3.97
2022-08-03T01:21:27.504Z,3.50
2022-08-03T01:24:44.505Z,3.75
2022-08-03T01:27:17.855Z,3.55
2022-08-03T01:29:58.546Z,3.75
2022-08-03T01:32:59.697Z,3.30
2022-08-03T01:35:27.691Z,4.13
2022-08-03T01:38:04.507Z,3.65
2022-08-03T01:40:34.577Z,3.53
2022-08-03T01:43:06.679Z,3.50
2022-08-03T01:45:34.647Z,3.53
2022-08-03T01:48:02.639Z,3.75
2022-08-03T01:50:30.863Z,3.80
2022-08-03T01:52:58.502Z,3.88
2022-08-03T01:55:28.286Z,3.70
2022-08-03T01:58:04.885Z,3.85
2022-08-03T02:00:35.437Z,4.00
2022-08-03T02:03:05.226Z,4.38
2022-08-03T02:05:32.400Z,3.42
2022-08-03T02:08:00.200Z,3.85
2022-08-03T02:10:34.777Z,3.22
2022-08-03T02:13:05.133Z,4.05
2022-08-03T02:15:34.060Z,4.45
2022-08-03T02:18:02.430Z,3.60
2022-08-03T02:20:33.168Z,3.65
2022-08-03T02:23:00.273Z,3.78
2022-08-03T02:25:28.242Z,3.63
2022-08-03T02:28:19.272Z,3.33
2022-08-03T02:30:51.740Z,3.20
2022-08-03T02:33:27.010Z,3.95
2022-08-03T02:35:55.142Z,3.90
2022-08-03T02:38:26.194Z,3.60
2022-08-03T02:40:56.299Z,3.75
2022-08-03T02:43:24.627Z,3.67
2022-08-03T02:45:53.588Z,3.63
2022-08-03T02:48:29.296Z,3.78
2022-08-03T02:51:02.311Z,3.53
2022-08-03T02:53:30.711Z,4.20
2022-08-03T02:55:59.257Z,3.90
2022-08-03T02:58:26.281Z,3.58
2022-08-03T03:01:06.569Z,3.90
2022-08-03T03:03:39.961Z,4.35
2022-08-03T03:06:13.476Z,3.55
2022-08-03T03:08:42.280Z,4.68
2022-08-03T03:11:10.300Z,4.25
2022-08-03T03:13:37.975Z,3.45
2022-08-03T03:16:08.615Z,4.15
2022-08-03T03:18:37.390Z,4.03
2022-08-03T03:21:04.936Z,3.92
2022-08-03T03:23:35.208Z,4.20
2022-08-03T03:26:02.401Z,4.13
2022-08-03T03:28:30.553Z,4.25
2022-08-03T03:30:57.162Z,4.35
2022-08-03T03:33:24.214Z,4.00
2022-08-03T03:35:51.920Z,4.03
2022-08-03T03:38:19.858Z,4.05
2022-08-03T03:40:46.491Z,4.35
2022-08-03T03:43:13.492Z,4.18
2022-08-03T03:45:43.496Z,4.25
2022-08-03T03:48:10.748Z,4.13
2022-08-03T03:50:40.822Z,3.88
2022-08-03T03:53:10.604Z,4.38
2022-08-03T03:55:59.490Z,4.45
2022-08-03T04:00:51.717Z,3.97
2022-08-03T04:03:18.227Z,3.78
2022-08-03T04:06:03.332Z,4.55
2022-08-03T04:08:49.454Z,4.63
2022-08-03T04:11:58.565Z,4.50
2022-08-03T04:17:03.573Z,4.03
2022-08-03T04:19:32.960Z,4.15
2022-08-03T04:22:03.732Z,4.30
2022-08-03T04:24:38.355Z,4.60
2022-08-03T04:27:08.926Z,4.60
2022-08-03T04:29:48.042Z,4.55
2022-08-03T04:32:17.184Z,4.00
2022-08-03T04:34:44.459Z,3.95
2022-08-03T04:37:35.275Z,4.32
2022-08-03T04:40:05.928Z,3.92
2022-08-03T04:42:33.882Z,4.55
2022-08-03T04:45:02.819Z,4.82
2022-08-03T04:47:32.970Z,4.80
2022-08-03T04:50:12.963Z,4.28
2022-08-03T04:52:44.029Z,4.68
2022-08-03T04:55:11.055Z,4.25
2022-08-03T04:57:41.381Z,4.65
2022-08-03T05:00:17.976Z,4.35
2022-08-03T05:02:47.291Z,4.40
2022-08-03T05:05:16.270Z,5.13
2022-08-03T05:08:05.128Z,4.65
2022-08-03T05:10:48.354Z,4.40
2022-08-03T05:13:17.181Z,4.97
2022-08-03T05:15:47.806Z,5.10
2022-08-03T05:18:22.002Z,5.00
2022-08-03T05:44:44.322Z,4.53
2022-08-03T05:47:21.262Z,3.90
2022-08-03T05:50:00.864Z,4.82
2022-08-03T06:15:51.131Z,2.70
2022-08-03T06:18:18.014Z,2.72
2022-08-03T07:17:00.310Z,2.05
2022-08-03T07:21:53.651Z,1.90
2022-08-03T07:24:20.259Z,1.83
2022-08-03T07:29:15.509Z,1.50
2022-08-03T07:31:42.511Z,1.48
2022-08-03T07:34:09.134Z,1.90
2022-08-03T07:36:35.583Z,1.95
2022-08-03T07:39:17.692Z,2.38
2022-08-03T07:41:51.949Z,1.83
2022-08-03T07:48:12.394Z,1.65
2022-08-03T07:51:07.295Z,1.70
2022-08-03T07:56:47.696Z,2.15
2022-08-03T08:00:24.635Z,1.58
2022-08-03T08:07:18.344Z,1.20
2022-08-03T08:10:33.103Z,1.30
2022-08-03T08:16:20.892Z,1.67
2022-08-03T08:18:47.763Z,1.30
2022-08-03T08:22:14.388Z,1.38
2022-08-03T08:25:21.541Z,1.42
2022-08-03T08:28:29.831Z,1.27
2022-08-03T08:30:59.278Z,1.30
2022-08-03T08:33:25.923Z,1.60
2022-08-03T08:35:54.250Z,2.13
2022-08-03T08:38:21.989Z,1.65
2022-08-03T08:40:50.155Z,1.42
2022-08-03T08:43:16.699Z,1.73
2022-08-03T08:45:44.962Z,1.20
2022-08-03T08:48:14.233Z,1.67
2022-08-03T08:50:41.124Z,1.35
2022-08-03T08:53:17.392Z,1.25
2022-08-03T08:55:58.715Z,1.48
2022-08-03T08:58:30.026Z,2.00
2022-08-03T09:01:00.026Z,1.67
2022-08-03T09:03:32.726Z,1.48
2022-08-03T09:06:01.038Z,1.63
2022-08-03T09:08:37.038Z,1.60
2022-08-03T09:11:03.672Z,1.60
2022-08-03T09:25:23.456Z,1.20
2022-08-03T09:27:53.537Z,1.55
2022-08-03T09:30:34.573Z,1.48
2022-08-03T09:33:17.338Z,1.40
2022-08-03T09:36:18.954Z,2.03
2022-08-03T09:39:02.043Z,1.50
2022-08-03T09:41:28.760Z,1.23
2022-08-03T09:43:57.212Z,1.27
2022-08-03T09:46:24.027Z,1.33
2022-08-03T09:48:50.579Z,1.25
2022-08-03T09:51:33.059Z,1.52
2022-08-03T09:54:15.088Z,1.50
2022-08-03T09:56:46.893Z,1.73
2022-08-03T09:59:33.484Z,2.15
2022-08-03T10:02:00.909Z,1.40
2022-08-03T10:04:30.511Z,1.50
2022-08-03T10:07:07.520Z,1.30
2022-08-03T10:12:12.596Z,1.05
2022-08-03T10:14:41.998Z,1.30
2022-08-03T10:17:09.621Z,1.10
2022-08-03T10:31:57.697Z,1.33
2022-08-03T10:35:20.245Z,1.85
2022-08-03T10:42:27.718Z,1.70
2022-08-03T11:25:54.679Z,1.70
2022-08-03T11:28:28.796Z,1.30
2022-08-03T11:30:55.382Z,1.60
2022-08-03T11:33:32.117Z,1.35
2022-08-03T11:36:03.220Z,1.55
2022-08-03T11:38:29.874Z,1.45
2022-08-03T11:40:56.391Z,1.65
2022-08-03T11:43:42.923Z,1.02
2022-08-03T12:01:42.644Z,1.50
2022-08-03T12:05:09.390Z,1.90
2022-08-03T12:14:50.624Z,1.30
2022-08-03T12:17:46.117Z,1.40
2022-08-03T12:20:34.783Z,1.27
2022-08-03T12:31:03.517Z,1.30
2022-08-03T12:48:31.775Z,1.50
2022-08-03T12:51:39.641Z,1.45
2022-08-03T12:54:06.427Z,1.88
2022-08-03T12:56:33.620Z,1.25
2022-08-03T12:59:00.491Z,1.35
2022-08-03T13:01:28.979Z,1.58
2022-08-03T13:04:00.310Z,1.30
2022-08-03T13:06:30.866Z,1.40
2022-08-03T13:09:17.374Z,1.60
2022-08-03T13:11:57.449Z,1.75
2022-08-03T13:14:29.057Z,1.45
2022-08-03T13:16:55.825Z,1.52
2022-08-03T13:19:24.523Z,1.80
2022-08-03T13:22:01.385Z,1.42
2022-08-03T13:24:31.909Z,1.60
2022-08-03T13:26:59.520Z,1.33
2022-08-03T13:29:26.028Z,1.50
2022-08-03T13:31:52.666Z,1.30
2022-08-03T13:34:23.065Z,1.55
2022-08-03T13:37:08.417Z,1.15
2022-08-03T13:39:58.300Z,1.35
2022-08-03T13:42:22.202Z,1.50
2022-08-03T13:44:48.713Z,1.50
2022-08-03T13:47:15.204Z,1.40
2022-08-03T13:49:42.261Z,1.45
2022-08-03T13:52:26.065Z,1.55
2022-08-03T13:54:52.535Z,1.60
2022-08-03T13:58:04.847Z,1.60
2022-08-03T14:00:06.847Z,1.40
2022-08-03T14:02:33.348Z,1.65
2022-08-03T14:04:59.816Z,1.50
2022-08-03T14:07:26.295Z,1.58
2022-08-03T14:09:55.222Z,1.58
2022-08-03T14:12:21.682Z,1.52
2022-08-03T14:14:48.158Z,1.80
2022-08-03T14:17:16.332Z,1.50
2022-08-03T14:19:53.015Z,1.40
2022-08-03T14:22:21.157Z,1.35
2022-08-03T14:24:49.248Z,1.33
2022-08-03T14:27:16.590Z,1.25
2022-08-03T14:29:44.594Z,1.50
2022-08-03T14:32:13.434Z,1.50
2022-08-03T14:34:40.956Z,1.50
2022-08-03T14:37:08.129Z,1.55
2022-08-03T14:42:21.639Z,1.52
2022-08-03T14:44:48.126Z,1.83
2022-08-03T14:47:14.817Z,1.80
2022-08-03T14:50:34.780Z,1.40
2022-08-03T14:52:28.798Z,1.65
2022-08-03T14:54:55.406Z,1.95
2022-08-03T14:57:22.154Z,1.50
2022-08-03T14:59:56.063Z,1.23
2022-08-03T15:02:24.813Z,1.50
2022-08-03T15:04:52.304Z,1.60
2022-08-03T15:07:20.480Z,1.55
2022-08-03T15:09:47.243Z,1.20
2022-08-03T15:12:13.701Z,1.98
2022-08-03T15:14:40.386Z,1.63
2022-08-03T15:17:07.552Z,1.45
2022-08-03T15:20:00.343Z,1.20
2022-08-03T15:22:25.373Z,1.38
2022-08-03T15:26:04.032Z,1.58
2022-08-03T15:28:03.578Z,1.52
2022-08-03T15:30:33.859Z,1.67
2022-08-03T15:33:00.346Z,1.55
2022-08-03T15:35:28.890Z,1.73
2022-08-03T15:37:55.561Z,1.20
2022-08-03T15:40:22.413Z,1.30
2022-08-03T15:42:49.038Z,1.80
2022-08-03T15:45:17.836Z,1.73
2022-08-03T15:47:47.251Z,1.60
2022-08-03T15:50:13.770Z,1.67
2022-08-03T15:52:40.262Z,1.60
2022-08-03T15:55:07.343Z,1.58
2022-08-03T15:57:33.981Z,1.75
2022-08-03T16:00:20.589Z,1.52
2022-08-03T16:03:00.128Z,1.35
2022-08-03T16:05:26.628Z,1.60
2022-08-03T16:08:02.944Z,2.10
2022-08-03T16:10:30.754Z,1.45
2022-08-03T16:12:58.851Z,1.67
2022-08-03T16:15:25.374Z,1.30
2022-08-03T16:17:51.900Z,1.55
2022-08-03T16:20:31.450Z,1.60
2022-08-03T16:23:06.978Z,1.45
2022-08-03T16:25:41.693Z,1.80
2022-08-03T16:28:13.824Z,1.38
2022-08-03T16:30:42.641Z,1.50
2022-08-03T16:33:10.555Z,2.20
2022-08-03T16:35:37.105Z,2.10
2022-08-03T16:38:09.622Z,1.83
2022-08-03T16:40:40.025Z,1.40
2022-08-03T16:43:17.913Z,1.65
2022-08-03T16:45:48.773Z,1.30
2022-08-03T16:48:16.182Z,1.92
2022-08-03T16:50:43.046Z,1.58
2022-08-03T16:53:15.711Z,1.30
2022-08-03T16:55:51.802Z,1.55
2022-08-03T16:58:34.522Z,1.95
2022-08-03T17:01:22.413Z,1.75
2022-08-03T17:04:01.343Z,1.60
2022-08-03T17:06:35.294Z,1.73
2022-08-03T17:09:08.939Z,1.65
2022-08-03T17:11:47.512Z,1.70
2022-08-03T17:14:21.632Z,1.50
2022-08-03T17:16:54.153Z,1.40
2022-08-03T17:19:25.565Z,1.98
2022-08-03T17:22:01.576Z,1.70
2022-08-03T17:24:40.925Z,1.70
2022-08-03T17:27:23.179Z,1.75
2022-08-03T17:30:12.009Z,1.65
2022-08-03T17:32:56.562Z,1.65
2022-08-03T17:35:35.562Z,1.70
2022-08-03T17:38:06.618Z,1.50
2022-08-03T17:40:37.975Z,1.52
2022-08-03T17:44:13.847Z,2.03
2022-08-03T17:45:59.149Z,1.98
2022-08-03T17:48:27.530Z,1.58
2022-08-03T17:51:03.400Z,2.03
2022-08-03T17:53:37.580Z,1.63
2022-08-03T17:56:46.022Z,1.70
2022-08-03T17:59:51.725Z,2.20
2022-08-03T18:03:10.119Z,1.80
2022-08-03T18:06:11.276Z,5.07
2022-08-03T18:08:38.851Z,5.13
2022-08-03T18:11:14.476Z,5.88
2022-08-03T18:14:03.065Z,6.65
2022-08-03T18:16:44.998Z,6.32
2022-08-03T18:19:14.443Z,5.22
2022-08-03T18:22:03.211Z,5.50
2022-08-03T18:24:32.456Z,5.40
2022-08-03T18:27:02.278Z,4.78
2022-08-03T18:29:30.947Z,4.28
2022-08-03T18:32:03.844Z,3.85
2022-08-03T18:34:34.714Z,3.65
2022-08-03T18:37:10.749Z,3.03
2022-08-03T18:39:50.337Z,3.50
2022-08-03T18:42:25.873Z,2.97
2022-08-03T18:45:00.303Z,2.83
2022-08-03T18:48:00.607Z,2.47
2022-08-03T18:51:03.965Z,2.45
2022-08-03T18:54:44.617Z,2.25
2022-08-03T18:57:30.220Z,2.67
2022-08-03T19:00:54.329Z,2.58
2022-08-03T19:03:42.951Z,2.30
2022-08-03T19:06:24.399Z,1.92
2022-08-03T19:09:28.786Z,2.10
2022-08-03T19:15:16.615Z,2.50
2022-08-03T19:17:52.872Z,2.70
2022-08-03T19:20:38.824Z,2.40
2022-08-03T19:23:11.835Z,2.25
2022-08-03T19:25:41.461Z,2.30
2022-08-03T19:28:12.105Z,2.30
2022-08-03T19:30:40.475Z,2.67
2022-08-03T19:33:12.766Z,2.55
2022-08-03T19:35:54.784Z,2.53
2022-08-03T19:38:28.428Z,2.42
2022-08-03T19:41:03.239Z,2.30
2022-08-03T19:44:20.070Z,2.20
2022-08-03T19:46:53.656Z,2.35
2022-08-03T19:50:04.607Z,2.65
2022-08-03T19:52:24.584Z,3.55
2022-08-03T19:55:05.902Z,2.10
2022-08-03T19:57:34.126Z,2.75
2022-08-03T20:00:05.397Z,2.50
2022-08-03T20:02:37.997Z,2.78
2022-08-03T20:05:15.860Z,2.53
2022-08-03T20:07:48.273Z,2.80
2022-08-03T20:10:19.417Z,2.80
2022-08-03T20:12:48.572Z,2.60
2022-08-03T20:15:22.499Z,3.85
2022-08-03T20:17:58.680Z,3.13
2022-08-03T20:20:39.032Z,2.40
2022-08-03T20:23:13.844Z,2.75
2022-08-03T20:25:48.945Z,2.88
2022-08-03T20:28:52.963Z,3.20
2022-08-03T20:31:25.176Z,3.20
2022-08-03T20:34:00.519Z,2.80
2022-08-03T20:36:27.319Z,2.63
2022-08-03T20:38:57.645Z,2.95
2022-08-03T20:41:24.748Z,2.80
2022-08-03T20:46:30.833Z,3.20
2022-08-03T20:49:04.297Z,2.60
2022-08-03T20:51:50.068Z,3.65
2022-08-03T20:54:23.115Z,3.25
2022-08-03T20:57:04.314Z,3.58
2022-08-03T20:59:55.677Z,2.88
2022-08-03T21:02:29.865Z,3.80
2022-08-03T21:05:08.461Z,2.97
2022-08-03T21:08:05.111Z,2.85
2022-08-03T21:10:38.024Z,3.60
2022-08-03T21:13:08.789Z,2.70
2022-08-03T21:13:18.171Z,3.63
2022-08-03T21:16:03.304Z,3.95
2022-08-03T21:18:50.050Z,3.45
2022-08-03T21:21:23.818Z,3.78
2022-08-03T21:23:53.083Z,3.70
2022-08-03T21:26:24.894Z,3.90
2022-08-03T21:28:53.835Z,3.72
2022-08-03T21:31:25.390Z,3.70
2022-08-03T21:33:57.689Z,3.67
2022-08-03T21:36:27.337Z,3.83
2022-08-03T21:38:56.461Z,3.78
2022-08-03T21:41:25.135Z,4.65
2022-08-03T21:43:51.636Z,3.85
2022-08-03T21:46:20.020Z,3.83
2022-08-03T21:48:50.609Z,4.25
2022-08-03T21:51:19.275Z,3.58
2022-08-03T21:54:00.351Z,4.45
2022-08-03T21:56:37.119Z,4.30
2022-08-03T21:59:07.031Z,4.25
2022-08-03T22:01:35.877Z,4.78
2022-08-03T22:04:09.386Z,4.35
2022-08-03T22:06:51.178Z,4.63
2022-08-03T22:09:19.150Z,4.68
2022-08-03T22:11:47.982Z,4.80
2022-08-03T22:14:14.469Z,4.50
2022-08-03T22:16:41.312Z,4.70
2022-08-03T22:19:08.357Z,4.20
2022-08-03T22:21:36.687Z,4.88
2022-08-03T22:24:05.475Z,5.10
2022-08-03T22:26:35.365Z,5.07
2022-08-03T22:29:07.247Z,4.90
2022-08-03T22:31:57.362Z,5.40
2022-08-03T22:34:26.481Z,6.05
2022-08-03T22:36:55.703Z,6.13
2022-08-03T22:39:28.888Z,5.43
2022-08-03T22:41:58.856Z,5.32
2022-08-03T22:44:26.871Z,5.75
2022-08-03T22:46:53.671Z,4.95
2022-08-03T22:49:20.758Z,5.18
2022-08-03T22:51:47.551Z,4.90
2022-08-03T22:54:14.793Z,5.78
2022-08-03T22:56:41.563Z,6.00
2022-08-03T22:59:40.783Z,6.00
2022-08-03T23:02:00.403Z,5.00
2022-08-03T23:04:29.727Z,5.93
2022-08-03T23:07:01.898Z,5.30
2022-08-03T23:09:30.313Z,5.63
2022-08-03T23:11:58.760Z,4.85
2022-08-03T23:14:29.234Z,5.45
2022-08-03T23:16:56.780Z,6.28
2022-08-03T23:19:34.240Z,5.32
2022-08-03T23:22:06.967Z,4.70
2022-08-03T23:24:53.827Z,4.78
2022-08-03T23:27:21.122Z,5.22
2022-08-03T23:29:50.496Z,5.50
2022-08-03T23:32:20.635Z,5.25
2022-08-03T23:35:07.179Z,5.15
2022-08-03T23:38:04.571Z,4.88
2022-08-03T23:40:28.891Z,5.10
2022-08-03T23:42:57.112Z,4.70
2022-08-03T23:45:26.053Z,4.82
2022-08-03T23:47:52.511Z,5.00
2022-08-03T23:50:19.160Z,4.68
2022-08-03T23:55:40.058Z,5.15
2022-08-03T23:58:18.667Z,4.85
